sensor_id;sensor_type;location;lat;lon;timestamp;pressure;altitude;pressure_sealevel;temperature;humidity
58662;BME280;44432;49.786;22.760;2023-03-22T00:01:23;99337.57;;;7.68;87.16
58662;BME280;44432;49.786;22.760;2023-03-22T00:03:57;99335.57;;;7.66;86.80
58662;BME280;44432;49.786;22.760;2023-03-22T00:06:28;99328.91;;;7.62;86.71
58662;BME280;44432;49.786;22.760;2023-03-22T00:08:59;99329.76;;;7.62;87.18
58662;BME280;44432;49.786;22.760;2023-03-22T00:11:29;99332.05;;;7.65;87.59
58662;BME280;44432;49.786;22.760;2023-03-22T00:14:00;99327.94;;;7.67;87.43
58662;BME280;44432;49.786;22.760;2023-03-22T00:16:37;99327.94;;;7.68;87.33
58662;BME280;44432;49.786;22.760;2023-03-22T00:19:11;99330.05;;;7.70;87.73
58662;BME280;44432;49.786;22.760;2023-03-22T00:21:42;99333.86;;;7.71;87.60
58662;BME280;44432;49.786;22.760;2023-03-22T00:24:13;99332.25;;;7.72;87.19
58662;BME280;44432;49.786;22.760;2023-03-22T00:26:43;99328.56;;;7.70;87.13
58662;BME280;44432;49.786;22.760;2023-03-22T00:29:15;99329.80;;;7.69;87.33
58662;BME280;44432;49.786;22.760;2023-03-22T00:31:48;99328.94;;;7.66;87.19
58662;BME280;44432;49.786;22.760;2023-03-22T00:34:20;99328.56;;;7.65;87.50
58662;BME280;44432;49.786;22.760;2023-03-22T00:36:51;99330.21;;;7.63;87.20
58662;BME280;44432;49.786;22.760;2023-03-22T00:39:22;99334.48;;;7.61;87.37
58662;BME280;44432;49.786;22.760;2023-03-22T00:41:52;99334.84;;;7.60;87.26
58662;BME280;44432;49.786;22.760;2023-03-22T00:44:23;99332.98;;;7.59;87.34
58662;BME280;44432;49.786;22.760;2023-03-22T00:46:54;99331.48;;;7.59;87.34
58662;BME280;44432;49.786;22.760;2023-03-22T00:49:25;99327.09;;;7.57;87.32
58662;BME280;44432;49.786;22.760;2023-03-22T00:51:56;99323.79;;;7.57;87.72
58662;BME280;44432;49.786;22.760;2023-03-22T00:54:26;99325.04;;;7.57;87.37
58662;BME280;44432;49.786;22.760;2023-03-22T00:56:57;99327.45;;;7.55;87.48
58662;BME280;44432;49.786;22.760;2023-03-22T00:59:28;99324.58;;;7.54;87.47
58662;BME280;44432;49.786;22.760;2023-03-22T01:01:59;99322.02;;;7.54;87.73
58662;BME280;44432;49.786;22.760;2023-03-22T01:04:32;99321.63;;;7.54;87.72
58662;BME280;44432;49.786;22.760;2023-03-22T01:07:04;99324.98;;;7.54;87.60
58662;BME280;44432;49.786;22.760;2023-03-22T01:09:36;99320.73;;;7.54;87.41
58662;BME280;44432;49.786;22.760;2023-03-22T01:12:07;99317.95;;;7.54;87.56
58662;BME280;44432;49.786;22.760;2023-03-22T01:14:38;99319.89;;;7.54;87.66
58662;BME280;44432;49.786;22.760;2023-03-22T01:17:09;99318.46;;;7.53;87.57
58662;BME280;44432;49.786;22.760;2023-03-22T01:19:40;99318.21;;;7.52;87.46
58662;BME280;44432;49.786;22.760;2023-03-22T01:22:11;99311.90;;;7.51;87.61
58662;BME280;44432;49.786;22.760;2023-03-22T01:24:41;99312.04;;;7.48;87.50
58662;BME280;44432;49.786;22.760;2023-03-22T01:27:12;99312.41;;;7.48;87.25
58662;BME280;44432;49.786;22.760;2023-03-22T01:29:43;99312.21;;;7.48;87.20
58662;BME280;44432;49.786;22.760;2023-03-22T01:32:14;99310.59;;;7.49;87.50
58662;BME280;44432;49.786;22.760;2023-03-22T01:34:44;99309.16;;;7.46;87.35
58662;BME280;44432;49.786;22.760;2023-03-22T01:37:15;99311.19;;;7.43;87.30
58662;BME280;44432;49.786;22.760;2023-03-22T01:39:46;99305.23;;;7.38;87.21
58662;BME280;44432;49.786;22.760;2023-03-22T01:42:17;99299.79;;;7.36;87.23
58662;BME280;44432;49.786;22.760;2023-03-22T01:47:58;99302.05;;;7.28;87.31
58662;BME280;44432;49.786;22.760;2023-03-22T01:50:30;99302.35;;;7.24;87.72
58662;BME280;44432;49.786;22.760;2023-03-22T01:53:01;99294.55;;;7.24;87.85
58662;BME280;44432;49.786;22.760;2023-03-22T01:55:33;99296.41;;;7.24;87.82
58662;BME280;44432;49.786;22.760;2023-03-22T01:58:04;99289.48;;;7.25;87.71
58662;BME280;44432;49.786;22.760;2023-03-22T02:00:37;99289.23;;;7.25;88.15
58662;BME280;44432;49.786;22.760;2023-03-22T02:03:08;99289.04;;;7.26;87.78
58662;BME280;44432;49.786;22.760;2023-03-22T02:05:41;99289.16;;;7.26;88.14
58662;BME280;44432;49.786;22.760;2023-03-22T02:08:13;99285.69;;;7.26;87.78
58662;BME280;44432;49.786;22.760;2023-03-22T02:10:44;99279.67;;;7.27;87.58
58662;BME280;44432;49.786;22.760;2023-03-22T02:13:34;99279.99;;;7.27;87.52
58662;BME280;44432;49.786;22.760;2023-03-22T02:16:19;99279.15;;;7.26;87.97
58662;BME280;44432;49.786;22.760;2023-03-22T02:19:18;99275.34;;;7.26;87.89
58662;BME280;44432;49.786;22.760;2023-03-22T02:22:22;99270.66;;;7.26;88.05
58662;BME280;44432;49.786;22.760;2023-03-22T02:28:24;99268.48;;;7.20;87.88
58662;BME280;44432;49.786;22.760;2023-03-22T02:31:19;99272.40;;;7.17;87.84
58662;BME280;44432;49.786;22.760;2023-03-22T02:34:19;99272.91;;;7.14;87.74
58662;BME280;44432;49.786;22.760;2023-03-22T02:37:10;99275.70;;;7.09;87.46
58662;BME280;44432;49.786;22.760;2023-03-22T02:39:51;99277.61;;;7.05;87.70
58662;BME280;44432;49.786;22.760;2023-03-22T02:42:38;99279.05;;;7.05;88.00
58662;BME280;44432;49.786;22.760;2023-03-22T02:45:15;99276.95;;;7.05;88.41
58662;BME280;44432;49.786;22.760;2023-03-22T02:47:55;99276.07;;;7.05;88.49
58662;BME280;44432;49.786;22.760;2023-03-22T02:50:31;99280.07;;;7.05;88.23
58662;BME280;44432;49.786;22.760;2023-03-22T02:53:09;99277.34;;;7.03;88.21
58662;BME280;44432;49.786;22.760;2023-03-22T02:55:45;99282.52;;;7.04;87.92
58662;BME280;44432;49.786;22.760;2023-03-22T02:58:20;99282.39;;;7.03;88.04
58662;BME280;44432;49.786;22.760;2023-03-22T03:00:56;99286.95;;;7.03;88.04
58662;BME280;44432;49.786;22.760;2023-03-22T03:03:30;99287.95;;;7.02;87.87
58662;BME280;44432;49.786;22.760;2023-03-22T03:06:06;99289.64;;;7.01;87.95
58662;BME280;44432;49.786;22.760;2023-03-22T03:08:39;99293.47;;;7.00;88.07
58662;BME280;44432;49.786;22.760;2023-03-22T03:11:10;99292.52;;;6.98;88.00
58662;BME280;44432;49.786;22.760;2023-03-22T03:13:41;99292.78;;;6.96;88.05
58662;BME280;44432;49.786;22.760;2023-03-22T03:16:13;99295.59;;;6.94;88.34
58662;BME280;44432;49.786;22.760;2023-03-22T03:18:49;99299.70;;;6.93;88.20
58662;BME280;44432;49.786;22.760;2023-03-22T03:21:30;99299.30;;;6.92;88.11
58662;BME280;44432;49.786;22.760;2023-03-22T03:24:19;99302.39;;;6.91;88.43
58662;BME280;44432;49.786;22.760;2023-03-22T03:26:57;99299.49;;;6.92;88.60
58662;BME280;44432;49.786;22.760;2023-03-22T03:29:35;99301.36;;;6.93;88.22
58662;BME280;44432;49.786;22.760;2023-03-22T03:32:11;99299.78;;;6.93;88.37
58662;BME280;44432;49.786;22.760;2023-03-22T03:34:46;99297.72;;;6.92;88.14
58662;BME280;44432;49.786;22.760;2023-03-22T03:37:22;99299.80;;;6.91;88.15
58662;BME280;44432;49.786;22.760;2023-03-22T03:39:57;99299.80;;;6.91;88.28
58662;BME280;44432;49.786;22.760;2023-03-22T03:42:30;99296.45;;;6.91;88.52
58662;BME280;44432;49.786;22.760;2023-03-22T03:45:02;99294.12;;;6.92;88.50
58662;BME280;44432;49.786;22.760;2023-03-22T03:47:34;99296.34;;;6.92;88.37
58662;BME280;44432;49.786;22.760;2023-03-22T03:50:07;99293.48;;;6.91;88.32
58662;BME280;44432;49.786;22.760;2023-03-22T03:52:37;99293.20;;;6.89;88.15
58662;BME280;44432;49.786;22.760;2023-03-22T03:55:09;99294.80;;;6.86;88.13
58662;BME280;44432;49.786;22.760;2023-03-22T03:57:40;99292.39;;;6.83;88.36
58662;BME280;44432;49.786;22.760;2023-03-22T04:00:13;99292.44;;;6.80;88.18
58662;BME280;44432;49.786;22.760;2023-03-22T04:02:45;99288.77;;;6.75;88.20
58662;BME280;44432;49.786;22.760;2023-03-22T04:05:16;99290.41;;;6.70;88.04
58662;BME280;44432;49.786;22.760;2023-03-22T04:07:47;99289.27;;;6.66;88.19
58662;BME280;44432;49.786;22.760;2023-03-22T04:10:18;99292.28;;;6.60;88.26
58662;BME280;44432;49.786;22.760;2023-03-22T04:12:48;99293.67;;;6.54;88.57
58662;BME280;44432;49.786;22.760;2023-03-22T04:15:19;99295.86;;;6.47;88.19
58662;BME280;44432;49.786;22.760;2023-03-22T04:17:50;99297.04;;;6.41;88.37
58662;BME280;44432;49.786;22.760;2023-03-22T04:20:22;99295.23;;;6.34;88.27
58662;BME280;44432;49.786;22.760;2023-03-22T04:22:54;99302.48;;;6.25;88.16
58662;BME280;44432;49.786;22.760;2023-03-22T04:25:26;99302.44;;;6.16;88.38
58662;BME280;44432;49.786;22.760;2023-03-22T04:27:58;99300.40;;;6.12;88.54
58662;BME280;44432;49.786;22.760;2023-03-22T04:30:29;99297.51;;;6.10;88.84
58662;BME280;44432;49.786;22.760;2023-03-22T04:33:04;99296.58;;;6.08;88.91
58662;BME280;44432;49.786;22.760;2023-03-22T04:35:36;99296.86;;;6.09;88.74
58662;BME280;44432;49.786;22.760;2023-03-22T04:38:07;99294.21;;;6.08;88.94
58662;BME280;44432;49.786;22.760;2023-03-22T04:40:38;99293.88;;;6.09;89.04
58662;BME280;44432;49.786;22.760;2023-03-22T04:43:15;99296.86;;;6.09;88.87
58662;BME280;44432;49.786;22.760;2023-03-22T04:45:47;99298.85;;;6.07;88.82
58662;BME280;44432;49.786;22.760;2023-03-22T04:48:18;99300.19;;;6.05;88.79
58662;BME280;44432;49.786;22.760;2023-03-22T04:50:50;99301.39;;;6.03;88.84
58662;BME280;44432;49.786;22.760;2023-03-22T04:53:23;99307.14;;;6.02;88.84
58662;BME280;44432;49.786;22.760;2023-03-22T04:55:56;99307.86;;;6.02;88.75
58662;BME280;44432;49.786;22.760;2023-03-22T04:58:27;99306.34;;;6.03;88.92
58662;BME280;44432;49.786;22.760;2023-03-22T05:00:58;99310.96;;;6.05;89.32
58662;BME280;44432;49.786;22.760;2023-03-22T05:03:29;99315.05;;;6.09;88.88
58662;BME280;44432;49.786;22.760;2023-03-22T05:06:01;99317.23;;;6.13;89.12
58662;BME280;44432;49.786;22.760;2023-03-22T05:08:32;99315.52;;;6.17;89.10
58662;BME280;44432;49.786;22.760;2023-03-22T05:11:07;99317.82;;;6.21;89.02
58662;BME280;44432;49.786;22.760;2023-03-22T05:13:39;99317.60;;;6.25;89.06
58662;BME280;44432;49.786;22.760;2023-03-22T05:16:11;99318.83;;;6.31;89.29
58662;BME280;44432;49.786;22.760;2023-03-22T05:18:41;99316.66;;;6.35;88.91
58662;BME280;44432;49.786;22.760;2023-03-22T05:21:15;99314.11;;;6.41;89.06
58662;BME280;44432;49.786;22.760;2023-03-22T05:23:50;99315.29;;;6.48;89.31
58662;BME280;44432;49.786;22.760;2023-03-22T05:26:21;99309.23;;;6.55;88.99
58662;BME280;44432;49.786;22.760;2023-03-22T05:28:53;99308.73;;;6.63;88.97
58662;BME280;44432;49.786;22.760;2023-03-22T05:31:24;99312.24;;;6.67;88.73
58662;BME280;44432;49.786;22.760;2023-03-22T05:33:56;99311.05;;;6.72;88.89
58662;BME280;44432;49.786;22.760;2023-03-22T05:36:28;99311.77;;;6.75;88.75
58662;BME280;44432;49.786;22.760;2023-03-22T05:38:59;99312.48;;;6.77;88.71
58662;BME280;44432;49.786;22.760;2023-03-22T05:41:29;99309.59;;;6.80;88.63
58662;BME280;44432;49.786;22.760;2023-03-22T05:44:02;99313.32;;;6.81;88.54
58662;BME280;44432;49.786;22.760;2023-03-22T05:46:32;99308.67;;;6.84;88.42
58662;BME280;44432;49.786;22.760;2023-03-22T05:49:03;99311.74;;;6.89;88.36
58662;BME280;44432;49.786;22.760;2023-03-22T05:51:34;99309.45;;;6.95;88.37
58662;BME280;44432;49.786;22.760;2023-03-22T05:54:09;99317.84;;;7.02;88.75
58662;BME280;44432;49.786;22.760;2023-03-22T05:56:40;99320.33;;;7.09;88.51
58662;BME280;44432;49.786;22.760;2023-03-22T05:59:12;99324.83;;;7.16;88.23
58662;BME280;44432;49.786;22.760;2023-03-22T06:01:43;99327.69;;;7.26;88.62
58662;BME280;44432;49.786;22.760;2023-03-22T06:04:14;99333.67;;;7.38;88.49
58662;BME280;44432;49.786;22.760;2023-03-22T06:06:44;99336.73;;;7.48;88.25
58662;BME280;44432;49.786;22.760;2023-03-22T06:09:15;99340.21;;;7.54;88.19
58662;BME280;44432;49.786;22.760;2023-03-22T06:11:46;99343.73;;;7.60;88.06
58662;BME280;44432;49.786;22.760;2023-03-22T06:14:16;99347.73;;;7.64;87.85
58662;BME280;44432;49.786;22.760;2023-03-22T06:16:47;99349.95;;;7.65;87.38
58662;BME280;44432;49.786;22.760;2023-03-22T06:19:18;99347.23;;;7.63;86.88
58662;BME280;44432;49.786;22.760;2023-03-22T06:21:49;99348.36;;;7.64;86.78
58662;BME280;44432;49.786;22.760;2023-03-22T06:24:21;99348.84;;;7.68;86.99
58662;BME280;44432;49.786;22.760;2023-03-22T06:26:52;99349.02;;;7.71;87.01
58662;BME280;44432;49.786;22.760;2023-03-22T06:29:22;99352.30;;;7.71;86.65
58662;BME280;44432;49.786;22.760;2023-03-22T06:31:53;99353.23;;;7.66;86.13
58662;BME280;44432;49.786;22.760;2023-03-22T06:34:24;99354.89;;;7.60;86.32
58662;BME280;44432;49.786;22.760;2023-03-22T06:36:55;99357.31;;;7.55;85.56
58662;BME280;44432;49.786;22.760;2023-03-22T06:39:26;99357.98;;;7.43;85.14
58662;BME280;44432;49.786;22.760;2023-03-22T06:41:57;99356.05;;;7.38;85.61
58662;BME280;44432;49.786;22.760;2023-03-22T06:44:27;99355.62;;;7.44;86.09
58662;BME280;44432;49.786;22.760;2023-03-22T06:46:58;99355.72;;;7.58;86.68
58662;BME280;44432;49.786;22.760;2023-03-22T06:49:30;99359.31;;;7.74;86.63
58662;BME280;44432;49.786;22.760;2023-03-22T06:52:00;99358.79;;;7.81;85.32
58662;BME280;44432;49.786;22.760;2023-03-22T06:54:32;99361.25;;;7.86;85.27
58662;BME280;44432;49.786;22.760;2023-03-22T06:57:02;99354.76;;;7.95;85.35
58662;BME280;44432;49.786;22.760;2023-03-22T06:59:33;99359.35;;;8.05;85.25
58662;BME280;44432;49.786;22.760;2023-03-22T07:02:04;99354.46;;;8.16;85.23
58662;BME280;44432;49.786;22.760;2023-03-22T07:04:35;99354.44;;;8.27;85.27
58662;BME280;44432;49.786;22.760;2023-03-22T07:07:06;99351.97;;;8.36;84.84
58662;BME280;44432;49.786;22.760;2023-03-22T07:09:37;99353.18;;;8.45;84.76
58662;BME280;44432;49.786;22.760;2023-03-22T07:12:08;99350.91;;;8.56;84.98
58662;BME280;44432;49.786;22.760;2023-03-22T07:14:38;99352.77;;;8.69;84.72
58662;BME280;44432;49.786;22.760;2023-03-22T07:17:09;99348.84;;;8.81;84.96
58662;BME280;44432;49.786;22.760;2023-03-22T07:19:42;99351.37;;;8.90;84.30
58662;BME280;44432;49.786;22.760;2023-03-22T07:22:13;99352.84;;;8.97;84.04
58662;BME280;44432;49.786;22.760;2023-03-22T07:24:44;99351.35;;;9.01;83.71
58662;BME280;44432;49.786;22.760;2023-03-22T07:27:15;99352.00;;;9.03;83.35
58662;BME280;44432;49.786;22.760;2023-03-22T07:29:45;99351.03;;;9.05;83.11
58662;BME280;44432;49.786;22.760;2023-03-22T07:32:16;99351.04;;;9.09;83.13
58662;BME280;44432;49.786;22.760;2023-03-22T07:34:47;99351.81;;;9.11;83.25
58662;BME280;44432;49.786;22.760;2023-03-22T07:37:18;99354.58;;;9.16;83.21
58662;BME280;44432;49.786;22.760;2023-03-22T07:39:48;99355.64;;;9.25;83.01
58662;BME280;44432;49.786;22.760;2023-03-22T07:42:19;99350.81;;;9.31;82.83
58662;BME280;44432;49.786;22.760;2023-03-22T07:44:50;99349.52;;;9.40;83.12
58662;BME280;44432;49.786;22.760;2023-03-22T07:47:21;99347.17;;;9.50;82.97
58662;BME280;44432;49.786;22.760;2023-03-22T07:49:51;99347.25;;;9.58;82.65
58662;BME280;44432;49.786;22.760;2023-03-22T07:52:22;99345.02;;;9.67;82.46
58662;BME280;44432;49.786;22.760;2023-03-22T07:54:53;99340.86;;;9.75;81.95
58662;BME280;44432;49.786;22.760;2023-03-22T07:57:24;99339.39;;;9.81;81.46
58662;BME280;44432;49.786;22.760;2023-03-22T07:59:55;99339.59;;;9.85;81.28
58662;BME280;44432;49.786;22.760;2023-03-22T08:02:26;99335.54;;;9.87;80.86
58662;BME280;44432;49.786;22.760;2023-03-22T08:04:57;99333.79;;;9.87;80.78
58662;BME280;44432;49.786;22.760;2023-03-22T08:07:27;99330.30;;;9.84;80.60
58662;BME280;44432;49.786;22.760;2023-03-22T08:09:58;99334.08;;;9.82;80.41
58662;BME280;44432;49.786;22.760;2023-03-22T08:12:29;99331.04;;;9.79;80.27
58662;BME280;44432;49.786;22.760;2023-03-22T08:15:00;99331.98;;;9.74;79.90
58662;BME280;44432;49.786;22.760;2023-03-22T08:17:31;99333.86;;;9.69;79.80
58662;BME280;44432;49.786;22.760;2023-03-22T08:20:02;99336.09;;;9.71;80.26
58662;BME280;44432;49.786;22.760;2023-03-22T08:22:36;99331.88;;;9.69;79.96
58662;BME280;44432;49.786;22.760;2023-03-22T08:25:08;99334.47;;;9.67;80.13
58662;BME280;44432;49.786;22.760;2023-03-22T08:27:39;99333.73;;;9.71;80.28
58662;BME280;44432;49.786;22.760;2023-03-22T08:30:12;99332.02;;;9.77;80.38
58662;BME280;44432;49.786;22.760;2023-03-22T08:32:43;99336.02;;;9.85;80.37
58662;BME280;44432;49.786;22.760;2023-03-22T08:35:13;99333.50;;;9.90;79.38
58662;BME280;44432;49.786;22.760;2023-03-22T08:37:44;99332.40;;;9.85;78.82
58662;BME280;44432;49.786;22.760;2023-03-22T08:40:15;99332.94;;;9.83;78.93
58662;BME280;44432;49.786;22.760;2023-03-22T08:42:46;99333.70;;;9.86;79.20
58662;BME280;44432;49.786;22.760;2023-03-22T08:45:17;99335.77;;;9.91;79.30
58662;BME280;44432;49.786;22.760;2023-03-22T08:47:48;99331.25;;;9.96;79.31
58662;BME280;44432;49.786;22.760;2023-03-22T08:50:19;99335.95;;;9.99;79.18
58662;BME280;44432;49.786;22.760;2023-03-22T08:52:50;99331.81;;;10.00;78.93
58662;BME280;44432;49.786;22.760;2023-03-22T08:55:22;99334.20;;;9.99;78.08
58662;BME280;44432;49.786;22.760;2023-03-22T08:57:53;99331.18;;;9.92;77.52
58662;BME280;44432;49.786;22.760;2023-03-22T09:00:26;99330.20;;;9.92;78.22
58662;BME280;44432;49.786;22.760;2023-03-22T09:02:57;99328.67;;;9.91;77.95
58662;BME280;44432;49.786;22.760;2023-03-22T09:05:28;99327.24;;;9.91;78.20
58662;BME280;44432;49.786;22.760;2023-03-22T09:07:59;99322.62;;;9.91;77.90
58662;BME280;44432;49.786;22.760;2023-03-22T09:10:30;99323.14;;;9.91;77.82
58662;BME280;44432;49.786;22.760;2023-03-22T09:13:01;99323.31;;;9.93;77.96
58662;BME280;44432;49.786;22.760;2023-03-22T09:15:31;99317.54;;;9.95;77.45
58662;BME280;44432;49.786;22.760;2023-03-22T09:18:02;99320.70;;;9.97;77.19
58662;BME280;44432;49.786;22.760;2023-03-22T09:20:33;99312.04;;;10.03;76.98
58662;BME280;44432;49.786;22.760;2023-03-22T09:23:04;99307.20;;;10.06;76.47
58662;BME280;44432;49.786;22.760;2023-03-22T09:25:35;99307.23;;;10.10;76.46
58662;BME280;44432;49.786;22.760;2023-03-22T09:28:06;99306.11;;;10.15;75.92
58662;BME280;44432;49.786;22.760;2023-03-22T09:30:36;99303.96;;;10.23;75.85
58662;BME280;44432;49.786;22.760;2023-03-22T09:33:07;99308.44;;;10.31;75.59
58662;BME280;44432;49.786;22.760;2023-03-22T09:35:42;99307.71;;;10.42;75.66
58662;BME280;44432;49.786;22.760;2023-03-22T09:38:13;99304.84;;;10.53;75.27
58662;BME280;44432;49.786;22.760;2023-03-22T09:40:51;99300.55;;;10.60;75.00
58662;BME280;44432;49.786;22.760;2023-03-22T09:43:31;99300.45;;;10.69;74.48
58662;BME280;44432;49.786;22.760;2023-03-22T09:46:06;99297.38;;;10.80;74.53
58662;BME280;44432;49.786;22.760;2023-03-22T09:48:40;99294.95;;;10.91;74.27
58662;BME280;44432;49.786;22.760;2023-03-22T09:51:27;99294.52;;;11.10;74.61
58662;BME280;44432;49.786;22.760;2023-03-22T09:53:59;99294.05;;;11.33;74.10
58662;BME280;44432;49.786;22.760;2023-03-22T09:56:31;99293.40;;;11.53;73.72
58662;BME280;44432;49.786;22.760;2023-03-22T09:59:07;99289.67;;;11.68;72.82
58662;BME280;44432;49.786;22.760;2023-03-22T10:01:47;99285.91;;;11.84;72.91
58662;BME280;44432;49.786;22.760;2023-03-22T10:04:44;99282.08;;;12.03;72.53
58662;BME280;44432;49.786;22.760;2023-03-22T10:07:24;99281.19;;;12.25;71.82
58662;BME280;44432;49.786;22.760;2023-03-22T10:10:08;99277.61;;;12.46;71.60
58662;BME280;44432;49.786;22.760;2023-03-22T10:12:51;99266.35;;;12.69;70.98
58662;BME280;44432;49.786;22.760;2023-03-22T10:15:29;99268.70;;;12.89;70.46
58662;BME280;44432;49.786;22.760;2023-03-22T10:18:04;99263.39;;;13.08;70.01
58662;BME280;44432;49.786;22.760;2023-03-22T10:20:39;99262.27;;;13.23;69.14
58662;BME280;44432;49.786;22.760;2023-03-22T10:23:15;99256.05;;;13.27;68.25
58662;BME280;44432;49.786;22.760;2023-03-22T10:25:48;99251.74;;;13.30;68.33
58662;BME280;44432;49.786;22.760;2023-03-22T10:28:22;99250.71;;;13.34;67.99
58662;BME280;44432;49.786;22.760;2023-03-22T10:30:53;99247.43;;;13.34;67.85
58662;BME280;44432;49.786;22.760;2023-03-22T10:33:32;99246.42;;;13.32;67.38
58662;BME280;44432;49.786;22.760;2023-03-22T10:36:07;99242.62;;;13.26;66.86
58662;BME280;44432;49.786;22.760;2023-03-22T10:38:46;99239.54;;;13.19;66.60
58662;BME280;44432;49.786;22.760;2023-03-22T10:41:20;99238.39;;;13.19;66.35
58662;BME280;44432;49.786;22.760;2023-03-22T10:43:55;99237.14;;;13.16;66.08
58662;BME280;44432;49.786;22.760;2023-03-22T10:46:30;99233.63;;;13.16;65.95
58662;BME280;44432;49.786;22.760;2023-03-22T10:49:03;99234.40;;;13.13;65.15
58662;BME280;44432;49.786;22.760;2023-03-22T10:51:41;99236.77;;;13.08;64.68
58662;BME280;44432;49.786;22.760;2023-03-22T10:54:17;99237.36;;;13.06;64.65
58662;BME280;44432;49.786;22.760;2023-03-22T10:56:49;99233.23;;;13.06;64.59
58662;BME280;44432;49.786;22.760;2023-03-22T10:59:45;99231.21;;;13.08;64.75
58662;BME280;44432;49.786;22.760;2023-03-22T11:02:25;99229.98;;;13.08;64.25
58662;BME280;44432;49.786;22.760;2023-03-22T11:04:58;99228.23;;;13.03;63.89
58662;BME280;44432;49.786;22.760;2023-03-22T11:07:35;99225.52;;;12.98;63.46
58662;BME280;44432;49.786;22.760;2023-03-22T11:10:27;99219.31;;;12.96;63.54
58662;BME280;44432;49.786;22.760;2023-03-22T11:13:15;99222.39;;;12.96;63.24
58662;BME280;44432;49.786;22.760;2023-03-22T11:16:00;99217.48;;;12.95;62.97
58662;BME280;44432;49.786;22.760;2023-03-22T11:18:33;99216.11;;;12.95;63.05
58662;BME280;44432;49.786;22.760;2023-03-22T11:21:08;99211.84;;;12.94;62.94
58662;BME280;44432;49.786;22.760;2023-03-22T11:23:44;99212.67;;;12.98;62.96
58662;BME280;44432;49.786;22.760;2023-03-22T11:26:27;99203.77;;;13.00;62.68
58662;BME280;44432;49.786;22.760;2023-03-22T11:29:06;99206.76;;;13.03;62.84
58662;BME280;44432;49.786;22.760;2023-03-22T11:31:57;99203.46;;;13.07;62.69
58662;BME280;44432;49.786;22.760;2023-03-22T11:34:31;99197.88;;;13.15;62.34
58662;BME280;44432;49.786;22.760;2023-03-22T11:37:01;99195.64;;;13.23;62.01
58662;BME280;44432;49.786;22.760;2023-03-22T11:39:37;99190.27;;;13.33;62.08
58662;BME280;44432;49.786;22.760;2023-03-22T11:42:19;99185.80;;;13.41;61.24
58662;BME280;44432;49.786;22.760;2023-03-22T11:44:52;99183.34;;;13.48;60.55
58662;BME280;44432;49.786;22.760;2023-03-22T11:47:31;99180.65;;;13.53;60.25
58662;BME280;44432;49.786;22.760;2023-03-22T11:50:07;99170.90;;;13.55;60.02
58662;BME280;44432;49.786;22.760;2023-03-22T11:52:39;99173.20;;;13.62;59.63
58662;BME280;44432;49.786;22.760;2023-03-22T11:55:16;99169.91;;;13.69;59.43
58662;BME280;44432;49.786;22.760;2023-03-22T11:57:48;99165.32;;;13.71;58.93
58662;BME280;44432;49.786;22.760;2023-03-22T12:00:22;99165.29;;;13.72;58.98
58662;BME280;44432;49.786;22.760;2023-03-22T12:02:58;99158.50;;;13.74;58.86
58662;BME280;44432;49.786;22.760;2023-03-22T12:05:32;99155.30;;;13.80;58.68
58662;BME280;44432;49.786;22.760;2023-03-22T12:08:05;99155.48;;;13.84;57.75
58662;BME280;44432;49.786;22.760;2023-03-22T12:10:41;99154.86;;;13.79;56.62
58662;BME280;44432;49.786;22.760;2023-03-22T12:13:16;99155.40;;;13.77;56.15
58662;BME280;44432;49.786;22.760;2023-03-22T12:15:51;99150.08;;;13.75;55.54
58662;BME280;44432;49.786;22.760;2023-03-22T12:18:27;99150.39;;;13.70;55.41
58662;BME280;44432;49.786;22.760;2023-03-22T12:21:00;99146.38;;;13.70;55.98
58662;BME280;44432;49.786;22.760;2023-03-22T12:23:32;99141.59;;;13.81;56.27
58662;BME280;44432;49.786;22.760;2023-03-22T12:26:05;99143.88;;;13.96;56.35
58662;BME280;44432;49.786;22.760;2023-03-22T12:28:41;99144.17;;;14.09;56.15
58662;BME280;44432;49.786;22.760;2023-03-22T12:31:19;99139.56;;;14.16;55.96
58662;BME280;44432;49.786;22.760;2023-03-22T12:33:53;99137.80;;;14.18;55.55
58662;BME280;44432;49.786;22.760;2023-03-22T12:36:30;99135.22;;;14.22;55.49
58662;BME280;44432;49.786;22.760;2023-03-22T12:39:06;99137.39;;;14.27;55.59
58662;BME280;44432;49.786;22.760;2023-03-22T12:41:41;99136.27;;;14.33;55.95
58662;BME280;44432;49.786;22.760;2023-03-22T12:44:17;99132.10;;;14.38;55.76
58662;BME280;44432;49.786;22.760;2023-03-22T12:46:54;99134.17;;;14.38;55.43
58662;BME280;44432;49.786;22.760;2023-03-22T12:49:31;99128.79;;;14.40;55.46
58662;BME280;44432;49.786;22.760;2023-03-22T12:52:13;99130.13;;;14.41;55.34
58662;BME280;44432;49.786;22.760;2023-03-22T12:54:46;99126.55;;;14.42;55.17
58662;BME280;44432;49.786;22.760;2023-03-22T12:57:16;99125.95;;;14.41;55.11
58662;BME280;44432;49.786;22.760;2023-03-22T12:59:49;99119.73;;;14.39;54.85
58662;BME280;44432;49.786;22.760;2023-03-22T13:02:27;99120.64;;;14.36;54.43
58662;BME280;44432;49.786;22.760;2023-03-22T13:05:00;99121.39;;;14.27;53.96
58662;BME280;44432;49.786;22.760;2023-03-22T13:07:38;99116.00;;;14.25;54.15
58662;BME280;44432;49.786;22.760;2023-03-22T13:13:43;99117.33;;;14.26;54.52
58662;BME280;44432;49.786;22.760;2023-03-22T13:19:27;99113.90;;;14.30;54.20
58662;BME280;44432;49.786;22.760;2023-03-22T13:22:17;99106.13;;;14.32;54.13
58662;BME280;44432;49.786;22.760;2023-03-22T13:25:13;99108.05;;;14.33;53.93
58662;BME280;44432;49.786;22.760;2023-03-22T13:27:59;99103.65;;;14.37;53.96
58662;BME280;44432;49.786;22.760;2023-03-22T13:30:34;99103.14;;;14.40;53.57
58662;BME280;44432;49.786;22.760;2023-03-22T13:33:18;99093.02;;;14.45;52.85
58662;BME280;44432;49.786;22.760;2023-03-22T13:35:52;99090.55;;;14.46;52.56
58662;BME280;44432;49.786;22.760;2023-03-22T13:38:26;99093.66;;;14.51;52.64
58662;BME280;44432;49.786;22.760;2023-03-22T13:41:01;99088.45;;;14.56;52.17
58662;BME280;44432;49.786;22.760;2023-03-22T13:43:35;99084.19;;;14.59;52.55
58662;BME280;44432;49.786;22.760;2023-03-22T13:46:27;99085.48;;;14.63;52.79